createdAt,value
2017-07-22T00:00:03.347Z,98541.03
2017-07-22T00:02:30.794Z,98533.28
2017-07-22T00:04:58.238Z,98529.78
2017-07-22T00:07:25.742Z,98522.42
2017-07-22T00:09:53.240Z,98523.41
2017-07-22T00:12:21.326Z,98526.31
2017-07-22T00:14:48.810Z,98509.05
2017-07-22T00:17:16.258Z,98516.80
2017-07-22T00:19:43.740Z,98509.85
2017-07-22T00:22:11.208Z,98515.09
2017-07-22T00:24:38.705Z,98512.39
2017-07-22T00:27:06.151Z,98508.72
2017-07-22T00:29:33.602Z,98523.68
2017-07-22T00:32:01.765Z,98526.00
2017-07-22T00:34:29.222Z,98521.74
2017-07-22T00:36:56.714Z,98523.66
2017-07-22T00:39:24.158Z,98525.21
2017-07-22T00:41:51.621Z,98529.50
2017-07-22T00:44:19.628Z,98539.58
2017-07-22T00:46:47.105Z,98537.39
2017-07-22T00:49:14.563Z,98534.11
2017-07-22T00:51:50.508Z,98526.91
2017-07-22T00:54:17.994Z,98525.16
2017-07-22T00:56:46.144Z,98523.41
2017-07-22T00:59:13.617Z,98518.57
2017-07-22T01:01:41.066Z,98538.94
2017-07-22T01:04:08.538Z,98564.34
2017-07-22T01:06:36.078Z,98578.11
2017-07-22T01:09:03.561Z,98580.43
2017-07-22T01:11:31.019Z,98577.89
2017-07-22T01:13:58.496Z,98575.57
2017-07-22T01:16:25.995Z,98564.89
2017-07-22T01:18:53.486Z,98561.60
2017-07-22T01:21:20.931Z,98560.45
2017-07-22T01:23:48.422Z,98559.46
2017-07-22T01:26:15.892Z,98563.35
2017-07-22T01:28:43.386Z,98561.03
2017-07-22T01:31:10.875Z,98549.38
2017-07-22T01:33:38.348Z,98551.14
2017-07-22T01:36:05.827Z,98537.56
2017-07-22T01:38:33.287Z,98536.77
2017-07-22T01:41:00.778Z,98531.34
2017-07-22T01:43:28.232Z,98537.56
2017-07-22T01:45:55.704Z,98528.84
2017-07-22T01:48:23.556Z,98521.66
2017-07-22T01:50:51.162Z,98526.12
2017-07-22T01:53:18.647Z,98510.02
2017-07-22T01:55:46.103Z,98504.22
2017-07-22T01:58:13.585Z,98499.36
2017-07-22T02:00:41.048Z,98493.72
2017-07-22T02:03:08.533Z,98494.11
2017-07-22T02:05:36.038Z,98490.25
2017-07-22T02:08:03.525Z,98487.53
2017-07-22T02:10:30.968Z,98484.42
2017-07-22T02:12:58.436Z,98485.77
2017-07-22T02:15:25.923Z,98484.22
2017-07-22T02:17:53.402Z,98487.33
2017-07-22T02:20:21.404Z,98499.54
2017-07-22T02:22:48.883Z,98506.33
2017-07-22T02:25:17.053Z,98507.50
2017-07-22T02:27:44.518Z,98497.79
2017-07-22T02:30:11.989Z,98498.97
2017-07-22T02:32:39.446Z,98499.94
2017-07-22T02:35:06.978Z,98503.23
2017-07-22T02:37:34.415Z,98499.16
2017-07-22T02:40:02.715Z,98507.48
2017-07-22T02:42:30.167Z,98507.69
2017-07-22T02:44:57.673Z,98513.70
2017-07-22T02:47:25.123Z,98515.27
2017-07-22T02:49:52.622Z,98521.66
2017-07-22T02:52:20.081Z,98521.63
2017-07-22T02:54:47.556Z,98519.12
2017-07-22T02:57:15.029Z,98516.98
2017-07-22T02:59:42.473Z,98515.44
2017-07-22T03:02:09.941Z,98520.30
2017-07-22T03:04:37.383Z,98515.84
2017-07-22T03:07:04.882Z,98524.95
2017-07-22T03:09:32.358Z,98532.13
2017-07-22T03:11:59.838Z,98527.66
2017-07-22T03:14:27.319Z,98531.73
2017-07-22T03:16:54.805Z,98533.27
2017-07-22T03:19:22.295Z,98538.73
2017-07-22T03:21:50.300Z,98537.58
2017-07-22T03:24:17.761Z,98537.19
2017-07-22T03:26:45.231Z,98537.37
2017-07-22T03:29:12.717Z,98547.84
2017-07-22T03:31:40.152Z,98546.30
2017-07-22T03:34:07.629Z,98554.63
2017-07-22T03:36:35.073Z,98555.59
2017-07-22T03:39:02.558Z,98559.31
2017-07-22T03:41:30.042Z,98559.67
2017-07-22T03:43:57.494Z,98561.60
2017-07-22T03:46:24.971Z,98564.53
2017-07-22T03:48:52.445Z,98561.63
2017-07-22T03:51:20.053Z,98562.78
2017-07-22T03:53:47.512Z,98564.32
2017-07-22T03:56:15.007Z,98569.93
2017-07-22T03:58:42.470Z,98572.86
2017-07-22T04:01:09.953Z,98571.50
2017-07-22T04:03:37.433Z,98566.64
2017-07-22T04:06:04.872Z,98567.42
2017-07-22T04:08:32.359Z,98570.92
2017-07-22T04:10:59.794Z,98566.64
2017-07-22T04:13:27.268Z,98567.81
2017-07-22T04:15:54.717Z,98568.00
2017-07-22T04:18:22.205Z,98570.32
2017-07-22T04:20:49.678Z,98569.75
2017-07-22T04:23:17.162Z,98570.29
2017-07-22T04:25:44.641Z,98570.68
2017-07-22T04:28:12.592Z,98567.36
2017-07-22T04:30:40.056Z,98574.15
2017-07-22T04:33:07.506Z,98574.94
2017-07-22T04:35:35.527Z,98573.00
2017-07-22T04:38:03.003Z,98577.68
2017-07-22T04:40:30.478Z,98574.94
2017-07-22T04:42:57.931Z,98576.50
2017-07-22T04:45:25.402Z,98577.65
2017-07-22T04:47:52.843Z,98580.94
2017-07-22T04:50:20.312Z,98577.26
2017-07-22T04:52:47.801Z,98575.51
2017-07-22T04:55:15.240Z,98588.30
2017-07-22T04:57:42.741Z,98583.86
2017-07-22T05:00:10.198Z,98577.44
2017-07-22T05:02:37.716Z,98582.30
2017-07-22T05:05:05.155Z,98582.69
2017-07-22T05:07:33.462Z,98593.55
2017-07-22T05:10:00.934Z,98601.30
2017-07-22T05:12:28.374Z,98596.44
2017-07-22T05:14:55.842Z,98603.80
2017-07-22T05:17:23.527Z,98610.58
2017-07-22T05:19:51.002Z,98608.08
2017-07-22T05:22:18.449Z,98607.69
2017-07-22T05:24:45.928Z,98608.26
2017-07-22T05:27:13.373Z,98611.76
2017-07-22T05:29:41.444Z,98610.40
2017-07-22T05:32:08.893Z,98607.50
2017-07-22T05:34:36.518Z,98608.47
2017-07-22T05:37:03.968Z,98606.14
2017-07-22T05:39:31.429Z,98608.26
2017-07-22T05:41:58.934Z,98611.76
2017-07-22T05:44:26.393Z,98611.19
2017-07-22T05:46:53.999Z,98611.97
2017-07-22T05:49:21.440Z,98614.29
2017-07-22T05:51:49.115Z,98619.33
2017-07-22T05:54:16.557Z,98618.15
2017-07-22T05:56:44.139Z,98619.86
2017-07-22T05:59:11.587Z,98623.58
2017-07-22T06:01:39.086Z,98626.11
2017-07-22T06:04:06.538Z,98623.19
2017-07-22T06:06:34.010Z,98626.68
2017-07-22T06:09:01.477Z,98625.51
2017-07-22T06:11:29.087Z,98629.00
2017-07-22T06:13:56.590Z,98630.94
2017-07-22T06:16:24.927Z,98629.00
2017-07-22T06:18:52.385Z,98630.97
2017-07-22T06:21:19.829Z,98634.83
2017-07-22T06:23:47.330Z,98640.26
2017-07-22T06:26:14.804Z,98643.37
2017-07-22T06:28:42.621Z,98643.94
2017-07-22T06:31:13.094Z,98642.40
2017-07-22T06:33:40.921Z,98642.57
2017-07-22T06:36:08.382Z,98640.83
2017-07-22T06:38:36.539Z,98644.33
2017-07-22T06:41:04.041Z,98644.33
2017-07-22T06:43:31.664Z,98645.87
2017-07-22T06:45:59.144Z,98647.05
2017-07-22T06:48:26.720Z,98653.26
2017-07-22T06:50:54.212Z,98659.05
2017-07-22T06:53:22.055Z,98655.97
2017-07-22T06:55:49.561Z,98668.76
2017-07-22T06:58:17.035Z,98671.06
2017-07-22T07:00:44.475Z,98672.78
2017-07-22T07:03:11.968Z,98676.28
2017-07-22T07:05:39.411Z,98678.61
2017-07-22T07:08:07.145Z,98677.46
2017-07-22T07:10:34.608Z,98678.61
2017-07-22T07:13:02.065Z,98679.96
2017-07-22T07:15:30.307Z,98675.50
2017-07-22T07:17:57.840Z,98675.50
2017-07-22T07:20:25.290Z,98682.11
2017-07-22T07:22:52.811Z,98679.57
2017-07-22T07:25:20.291Z,98669.67
2017-07-22T07:27:47.757Z,98675.50
2017-07-22T07:30:15.238Z,98682.09
2017-07-22T07:32:43.354Z,98690.99
2017-07-22T07:35:10.838Z,98690.99
2017-07-22T07:37:38.303Z,98690.64
2017-07-22T07:40:05.780Z,98694.09
2017-07-22T07:42:33.265Z,98696.98
2017-07-22T07:45:00.766Z,98692.55
2017-07-22T07:47:28.261Z,98691.77
2017-07-22T07:49:55.718Z,98686.34
2017-07-22T07:52:23.204Z,98694.48
2017-07-22T07:54:50.682Z,98685.38
2017-07-22T07:57:18.166Z,98682.84
2017-07-22T07:59:46.393Z,98681.13
2017-07-22T08:02:14.845Z,98672.55
2017-07-22T08:04:42.321Z,98677.10
2017-07-22T08:07:09.821Z,98671.27
2017-07-22T08:09:38.126Z,98667.77
2017-07-22T08:12:05.573Z,98672.06
2017-07-22T08:14:33.065Z,98674.59
2017-07-22T08:17:00.533Z,98675.44
2017-07-22T08:19:27.997Z,98675.84
2017-07-22T08:21:55.540Z,98677.19
2017-07-22T08:24:23.003Z,98677.02
2017-07-22T08:26:50.524Z,98674.70
2017-07-22T08:29:17.974Z,98686.16
2017-07-22T08:31:45.448Z,98677.63
2017-07-22T08:34:12.928Z,98681.49
2017-07-22T08:36:40.436Z,98682.45
2017-07-22T08:39:07.899Z,98687.53
2017-07-22T08:41:35.893Z,98683.13
2017-07-22T08:44:03.332Z,98684.70
2017-07-22T08:46:30.794Z,98685.84
2017-07-22T08:48:58.271Z,98686.45
2017-07-22T08:51:25.718Z,98688.60
2017-07-22T08:53:53.194Z,98688.38
2017-07-22T08:56:20.698Z,98689.14
2017-07-22T08:58:48.181Z,98691.63
2017-07-22T09:01:15.659Z,98700.09
2017-07-22T09:03:43.141Z,98697.27
2017-07-22T09:06:10.625Z,98706.19
2017-07-22T09:08:38.110Z,98698.78
2017-07-22T09:11:05.592Z,98698.27
2017-07-22T09:13:33.054Z,98702.52
2017-07-22T09:16:00.525Z,98705.58
2017-07-22T09:18:28.018Z,98705.00
2017-07-22T09:20:55.489Z,98706.13
2017-07-22T09:23:23.758Z,98703.35
2017-07-22T09:25:51.234Z,98704.33
2017-07-22T09:28:18.748Z,98713.50
2017-07-22T09:30:46.403Z,98711.10
2017-07-22T09:33:13.852Z,98705.23
2017-07-22T09:35:41.310Z,98708.53
2017-07-22T09:38:08.945Z,98704.83
2017-07-22T09:40:36.984Z,98698.48
2017-07-22T09:43:04.521Z,98697.54
2017-07-22T09:45:32.108Z,98697.36
2017-07-22T09:47:59.577Z,98702.79
2017-07-22T09:50:27.067Z,98697.54
2017-07-22T09:52:54.564Z,98695.41
2017-07-22T09:55:22.580Z,98695.62
2017-07-22T09:57:50.070Z,98694.42
2017-07-22T10:00:17.536Z,98701.05
2017-07-22T10:02:45.198Z,98693.35
2017-07-22T10:05:12.685Z,98694.95
2017-07-22T10:07:40.133Z,98697.44
2017-07-22T10:10:07.582Z,98699.53
2017-07-22T10:12:35.068Z,98694.31
2017-07-22T10:15:02.518Z,98691.21
2017-07-22T10:17:30.013Z,98692.58
2017-07-22T10:19:57.509Z,98696.02
2017-07-22T10:22:24.985Z,98694.95
2017-07-22T10:24:52.971Z,98685.89
2017-07-22T10:27:20.434Z,98690.17
2017-07-22T10:29:48.729Z,98684.38
2017-07-22T10:32:16.166Z,98683.02
2017-07-22T10:34:43.634Z,98684.53
2017-07-22T10:37:11.247Z,98682.45
2017-07-22T10:39:38.712Z,98679.74
2017-07-22T10:42:06.174Z,98683.69
2017-07-22T10:44:33.720Z,98682.35
2017-07-22T10:47:01.160Z,98678.42
2017-07-22T10:49:28.639Z,98671.47
2017-07-22T10:51:56.253Z,98670.91
2017-07-22T10:54:23.949Z,98661.98
2017-07-22T10:56:51.403Z,98663.83
2017-07-22T10:59:18.858Z,98663.44
2017-07-22T11:01:46.487Z,98655.30
2017-07-22T11:04:13.954Z,98659.86
2017-07-22T11:06:41.433Z,98654.42
2017-07-22T11:09:08.890Z,98662.52
2017-07-22T11:11:36.358Z,98658.86
2017-07-22T11:14:03.833Z,98648.22
2017-07-22T11:16:31.389Z,98662.09
2017-07-22T11:18:58.919Z,98655.78
2017-07-22T11:21:26.402Z,98663.13
2017-07-22T11:23:53.886Z,98669.89
2017-07-22T11:26:21.385Z,98660.63
2017-07-22T11:28:49.080Z,98659.14
2017-07-22T11:31:16.525Z,98659.56
2017-07-22T11:33:43.964Z,98663.72
2017-07-22T11:36:11.441Z,98657.84
2017-07-22T11:38:38.923Z,98654.39
2017-07-22T11:41:06.377Z,98657.86
2017-07-22T11:43:33.852Z,98659.58
2017-07-22T11:46:01.308Z,98644.09
2017-07-22T11:48:28.774Z,98646.27
2017-07-22T11:50:56.488Z,98654.35
2017-07-22T11:53:23.970Z,98650.95
2017-07-22T11:55:51.423Z,98653.04
2017-07-22T11:58:19.268Z,98642.26
2017-07-22T12:00:47.184Z,98640.97
2017-07-22T12:03:14.637Z,98640.84
2017-07-22T12:05:42.148Z,98639.48
2017-07-22T12:08:09.621Z,98641.23
2017-07-22T12:10:37.291Z,98644.55
2017-07-22T12:13:04.761Z,98640.59
2017-07-22T12:15:32.244Z,98639.91
2017-07-22T12:17:59.706Z,98644.59
2017-07-22T12:20:27.178Z,98655.50
2017-07-22T12:22:54.801Z,98648.70
2017-07-22T12:25:22.276Z,98655.71
2017-07-22T12:28:22.350Z,98647.69
2017-07-22T12:30:49.862Z,98649.41
2017-07-22T12:33:17.314Z,98646.70
2017-07-22T12:35:44.782Z,98644.31
2017-07-22T12:38:12.457Z,98644.81
2017-07-22T12:40:39.904Z,98647.88
2017-07-22T12:43:07.389Z,98635.66
2017-07-22T12:45:34.872Z,98635.83
2017-07-22T12:48:02.390Z,98632.72
2017-07-22T12:50:29.873Z,98625.33
2017-07-22T12:52:57.354Z,98626.47
2017-07-22T12:55:24.797Z,98628.04
2017-07-22T12:57:52.833Z,98624.14
2017-07-22T13:00:20.287Z,98620.82
2017-07-22T13:02:47.948Z,98624.31
2017-07-22T13:05:15.448Z,98627.99
2017-07-22T13:07:42.896Z,98625.06
2017-07-22T13:10:10.365Z,98620.99
2017-07-22T13:12:37.826Z,98620.02
2017-07-22T13:15:05.306Z,98625.84
2017-07-22T13:17:32.798Z,98625.06
2017-07-22T13:20:00.283Z,98629.52
2017-07-22T13:22:28.468Z,98620.77
2017-07-22T13:24:55.912Z,98613.80
2017-07-22T13:27:24.080Z,98611.66
2017-07-22T13:29:51.524Z,98604.88
2017-07-22T13:32:18.987Z,98601.59
2017-07-22T13:34:46.465Z,98610.06
2017-07-22T13:37:13.951Z,98609.48
2017-07-22T13:39:41.400Z,98614.52
2017-07-22T13:42:08.869Z,98607.73
2017-07-22T13:44:36.314Z,98606.16
2017-07-22T13:47:03.814Z,98603.84
2017-07-22T13:49:31.296Z,98601.13
2017-07-22T13:51:58.799Z,98606.20
2017-07-22T13:54:26.365Z,98612.20
2017-07-22T13:56:53.823Z,98611.80
2017-07-22T13:59:21.714Z,98601.73
2017-07-22T14:01:49.156Z,98597.27
2017-07-22T14:04:16.605Z,98599.02
2017-07-22T14:06:44.122Z,98587.77
2017-07-22T14:09:11.604Z,98582.13
2017-07-22T14:11:39.051Z,98585.45
2017-07-22T14:14:06.538Z,98577.31
2017-07-22T14:16:34.003Z,98574.78
2017-07-22T14:19:01.554Z,98582.92
2017-07-22T14:21:29.010Z,98585.67
2017-07-22T14:23:56.505Z,98585.70
2017-07-22T14:26:23.972Z,98581.03
2017-07-22T14:28:51.453Z,98587.25
2017-07-22T14:31:18.920Z,98585.31
2017-07-22T14:33:46.376Z,98586.89
2017-07-22T14:36:13.898Z,98584.53
2017-07-22T14:38:41.375Z,98579.71
2017-07-22T14:41:08.888Z,98576.25
2017-07-22T14:43:36.336Z,98579.14
2017-07-22T14:46:03.842Z,98579.50
2017-07-22T14:48:31.288Z,98581.47
2017-07-22T14:50:58.812Z,98586.14
2017-07-22T14:53:26.311Z,98571.97
2017-07-22T14:55:53.812Z,98574.89
2017-07-22T14:58:21.269Z,98577.22
2017-07-22T15:00:48.745Z,98582.25
2017-07-22T15:03:16.233Z,98588.08
2017-07-22T15:05:43.693Z,98585.75
2017-07-22T15:08:11.184Z,98582.86
2017-07-22T15:10:38.633Z,98572.58
2017-07-22T15:13:06.116Z,98572.00
2017-07-22T15:15:33.592Z,98573.36
2017-07-22T15:18:01.063Z,98572.58
2017-07-22T15:20:28.566Z,98573.94
2017-07-22T15:22:57.348Z,98563.11
2017-07-22T15:25:24.807Z,98566.79
2017-07-22T15:27:52.729Z,98571.61
2017-07-22T15:30:20.207Z,98573.36
2017-07-22T15:32:47.668Z,98572.04
2017-07-22T15:35:15.134Z,98566.39
2017-07-22T15:37:42.585Z,98569.32
2017-07-22T15:40:10.106Z,98566.22
2017-07-22T15:42:37.540Z,98567.75
2017-07-22T15:45:05.055Z,98561.36
2017-07-22T15:47:32.532Z,98563.89
2017-07-22T15:50:00.007Z,98566.97
2017-07-22T15:52:27.841Z,98561.36
2017-07-22T15:54:55.481Z,98555.75
2017-07-22T15:57:22.939Z,98558.47
2017-07-22T15:59:50.543Z,98562.14
2017-07-22T16:02:18.056Z,98563.50
2017-07-22T16:04:46.331Z,98559.22
2017-07-22T16:07:13.839Z,98568.33
2017-07-22T16:09:41.311Z,98562.14
2017-07-22T16:12:08.798Z,98562.14
2017-07-22T16:14:36.254Z,98563.50
2017-07-22T16:17:03.763Z,98561.36
2017-07-22T16:19:31.225Z,98563.50
2017-07-22T16:21:58.708Z,98559.61
2017-07-22T16:24:26.168Z,98551.68
2017-07-22T16:26:53.645Z,98553.03
2017-07-22T16:29:21.120Z,98552.07
2017-07-22T16:31:48.603Z,98549.14
2017-07-22T16:34:16.135Z,98551.47
2017-07-22T16:36:43.613Z,98551.50
2017-07-22T16:39:11.101Z,98556.72
2017-07-22T16:41:38.551Z,98547.39
2017-07-22T16:44:06.017Z,98548.36
2017-07-22T16:46:33.461Z,98548.18
2017-07-22T16:49:00.935Z,98550.32
2017-07-22T16:51:28.405Z,98549.54
2017-07-22T16:53:55.890Z,98555.54
2017-07-22T16:56:23.337Z,98553.82
2017-07-22T16:58:50.830Z,98553.22
2017-07-22T17:01:18.322Z,98563.89
2017-07-22T17:03:45.768Z,98554.39
2017-07-22T17:06:13.252Z,98552.46
2017-07-22T17:08:40.694Z,98553.04
2017-07-22T17:11:08.171Z,98544.31
2017-07-22T17:13:35.637Z,98551.50
2017-07-22T17:16:03.073Z,98546.46
2017-07-22T17:18:30.548Z,98544.89
2017-07-22T17:20:58.042Z,98540.64
2017-07-22T17:23:25.492Z,98542.00
2017-07-22T17:25:52.970Z,98539.47
2017-07-22T17:28:20.431Z,98530.35
2017-07-22T17:30:47.935Z,98535.60
2017-07-22T17:33:15.404Z,98526.85
2017-07-22T17:35:42.906Z,98526.09
2017-07-22T17:38:10.459Z,98526.88
2017-07-22T17:40:38.805Z,98523.56
2017-07-22T17:43:06.287Z,98529.39
2017-07-22T17:45:33.741Z,98522.81
2017-07-22T17:48:01.230Z,98527.64
2017-07-22T17:50:28.696Z,98525.31
2017-07-22T17:52:56.289Z,98519.49
2017-07-22T17:55:23.737Z,98518.53
2017-07-22T17:57:51.204Z,98514.45
2017-07-22T18:00:19.195Z,98506.31
2017-07-22T18:02:46.640Z,98513.31
2017-07-22T18:05:14.125Z,98510.59
2017-07-22T18:07:41.608Z,98507.48
2017-07-22T18:10:09.107Z,98504.77
2017-07-22T18:12:36.861Z,98502.05
2017-07-22T18:15:04.371Z,98495.45
2017-07-22T18:17:31.853Z,98501.88
2017-07-22T18:19:59.311Z,98496.62
2017-07-22T18:22:26.781Z,98501.09
2017-07-22T18:24:54.235Z,98498.77
2017-07-22T18:27:21.735Z,98502.45
2017-07-22T18:29:49.182Z,98501.88
2017-07-22T18:32:16.965Z,98501.66
2017-07-22T18:34:44.520Z,98499.94
2017-07-22T18:37:11.985Z,98504.77
2017-07-22T18:39:39.470Z,98503.02
2017-07-22T18:42:06.924Z,98503.80
2017-07-22T18:44:34.454Z,98500.30
2017-07-22T18:47:01.945Z,98503.80
2017-07-22T18:49:29.453Z,98496.83
2017-07-22T18:51:56.917Z,98502.45
2017-07-22T18:54:24.397Z,98495.27
2017-07-22T18:56:51.881Z,98496.83
2017-07-22T18:59:19.327Z,98501.09
2017-07-22T19:01:46.802Z,98503.62
2017-07-22T19:04:14.247Z,98505.95
2017-07-22T19:06:41.754Z,98506.91
2017-07-22T19:09:09.725Z,98503.80
2017-07-22T19:11:37.209Z,98505.16
2017-07-22T19:14:04.697Z,98505.55
2017-07-22T19:16:32.171Z,98500.91
2017-07-22T19:18:59.632Z,98496.44
2017-07-22T19:21:27.125Z,98497.80
2017-07-22T19:23:54.642Z,98492.77
2017-07-22T19:26:22.083Z,98499.34
2017-07-22T19:28:50.495Z,98506.34
2017-07-22T19:31:17.938Z,98501.88
2017-07-22T19:33:45.570Z,98497.23
2017-07-22T19:36:13.029Z,98491.19
2017-07-22T19:38:40.542Z,98486.16
2017-07-22T19:41:08.010Z,98483.64
2017-07-22T19:43:35.476Z,98481.33
2017-07-22T19:46:02.949Z,98479.19
2017-07-22T19:48:30.495Z,98474.53
2017-07-22T19:50:57.969Z,98479.97
2017-07-22T19:53:25.452Z,98473.54
2017-07-22T19:55:52.937Z,98467.75
2017-07-22T19:58:20.385Z,98474.33
2017-07-22T20:00:48.086Z,98480.33
2017-07-22T20:03:15.527Z,98471.22
2017-07-22T20:05:43.019Z,98481.69
2017-07-22T20:08:10.448Z,98485.00
2017-07-22T20:10:37.919Z,98481.11
2017-07-22T20:13:05.406Z,98480.55
2017-07-22T20:15:32.884Z,98493.72
2017-07-22T20:18:00.379Z,98496.83
2017-07-22T20:20:27.878Z,98499.55
2017-07-22T20:22:55.369Z,98500.91
2017-07-22T20:25:22.822Z,98494.12
2017-07-22T20:27:50.315Z,98497.41
2017-07-22T20:30:17.784Z,98501.88
2017-07-22T20:32:45.264Z,98493.34
2017-07-22T20:35:12.730Z,98498.38
2017-07-22T20:37:40.218Z,98497.02
2017-07-22T20:40:07.706Z,98499.34
2017-07-22T20:42:35.198Z,98502.45
2017-07-22T20:45:02.641Z,98502.05
2017-07-22T20:47:30.799Z,98500.70
2017-07-22T20:49:58.416Z,98505.95
2017-07-22T20:52:25.852Z,98510.41
2017-07-22T20:54:53.320Z,98519.52
2017-07-22T20:57:20.775Z,98506.13
2017-07-22T20:59:48.238Z,98504.20
2017-07-22T21:02:15.728Z,98513.13
2017-07-22T21:04:43.172Z,98500.30
2017-07-22T21:07:10.664Z,98494.48
2017-07-22T21:09:38.104Z,98490.23
2017-07-22T21:12:05.586Z,98474.72
2017-07-22T21:14:33.390Z,98455.14
2017-07-22T21:17:01.212Z,98462.32
2017-07-22T21:19:28.938Z,98501.08
2017-07-22T21:21:57.269Z,98501.88
2017-07-22T21:24:24.733Z,98511.37
2017-07-22T21:26:52.182Z,98513.70
2017-07-22T21:29:19.787Z,98525.73
2017-07-22T21:31:47.238Z,98525.52
2017-07-22T21:34:14.690Z,98522.80
2017-07-22T21:36:42.158Z,98527.84
2017-07-22T21:39:09.620Z,98524.77
2017-07-22T21:41:37.070Z,98543.95
2017-07-22T21:44:04.545Z,98561.60
2017-07-22T21:46:32.003Z,98571.31
2017-07-22T21:48:59.486Z,98577.11
2017-07-22T21:51:26.925Z,98570.89
2017-07-22T21:53:54.426Z,98574.00
2017-07-22T21:56:21.894Z,98577.11
2017-07-22T21:58:49.352Z,98584.50
2017-07-22T22:01:16.841Z,98579.61
2017-07-22T22:03:44.302Z,98592.05
2017-07-22T22:06:11.781Z,98594.76
2017-07-22T22:08:39.230Z,98608.91
2017-07-22T22:11:06.722Z,98627.91
2017-07-22T22:13:34.206Z,98621.91
2017-07-22T22:16:01.688Z,98624.19
2017-07-22T22:18:29.178Z,98619.38
2017-07-22T22:20:56.643Z,98626.94
2017-07-22T22:23:24.132Z,98622.66
2017-07-22T22:25:51.590Z,98628.87
2017-07-22T22:28:19.071Z,98637.59
2017-07-22T22:30:46.505Z,98644.77
2017-07-22T22:33:13.996Z,98641.27
2017-07-22T22:35:41.447Z,98653.70
2017-07-22T22:38:08.913Z,98665.31
2017-07-22T22:40:37.133Z,98676.95
2017-07-22T22:43:04.635Z,98681.81
2017-07-22T22:45:32.109Z,98690.70
2017-07-22T22:47:59.572Z,98698.85
2017-07-22T22:50:34.917Z,98706.64
2017-07-22T22:53:03.128Z,98714.97
2017-07-22T22:55:30.601Z,98707.80
2017-07-22T22:57:58.072Z,98710.72
2017-07-22T23:00:25.547Z,98700.83
2017-07-22T23:02:53.011Z,98705.08
2017-07-22T23:05:20.481Z,98705.86
2017-07-22T23:07:47.945Z,98707.61
2017-07-22T23:10:15.418Z,98709.75
2017-07-22T23:12:42.953Z,98716.72
2017-07-22T23:15:10.431Z,98724.08
2017-07-22T23:17:37.897Z,98727.00
2017-07-22T23:20:05.350Z,98727.97
2017-07-22T23:22:32.842Z,98734.36
2017-07-22T23:25:00.298Z,98740.19
2017-07-22T23:27:27.785Z,98728.75
2017-07-22T23:29:55.245Z,98734.76
2017-07-22T23:32:22.718Z,98732.05
2017-07-22T23:34:50.188Z,98730.47
2017-07-22T23:37:17.653Z,98726.61
2017-07-22T23:42:18.852Z,98725.82
2017-07-22T23:44:46.307Z,98726.60
2017-07-22T23:47:13.783Z,98717.85
2017-07-22T23:49:41.275Z,98719.78
2017-07-22T23:52:08.732Z,98722.50
2017-07-22T23:54:36.215Z,98719.60
2017-07-22T23:57:03.711Z,98710.67
2017-07-22T23:59:31.203Z,98712.20
